KDYL

Doylestown Airport

Doylestown, Pennsylvania, USA
METAR KDYL 240154Z AUTO 00000KT 10SM CLR 19/12 A3003 RMK AO2 SLP166 T01890122
Observed Flight Rules
May-24 @ 01:54 UTC (28 minutes ago) Visual Flight Rules
Visibility Clouds
10 miles
  • Clear skies
Temperatures Readings
Current 19°C / 66°F
Dewpoint 12°C / 54°F
Humidity 64%
Altimeter 30.03" Hg
Pressure 1016.6 hPa
Elevation 117
METAR KDYL 240154Z AUTO 00000KT 10SM CLR 19/12 A3003 RMK AO2 SLP166 T01890122
Observed Flight Rules
May-24 @ 01:54 UTC
(28 minutes ago)
VFR
Clouds
  • Clear skies
Temperature Dewpoint
19°C / 66°F 12°C / 54°F
Humidity Altimeter Pressure
64% 30.03" Hg 1016.6 hPa